Time;durP1;ratioP1;P1;durP2;ratioP2;P2;SDS_P1;SDS_P2;PMS_P1;PMS_P2;Temp;Humidity;BMP_temperature;BMP_pressure;BME280_temperature;BME280_humidity;BME280_pressure;Samples;Min_cycle;Max_cycle;Signal;HPM_P1;HPM_P2
2022/07/29 00:00:16;;;;;;;11.50;6.62;;;;;;;22.25;64.37;99194.56;1666047;85;21042;-78
2022/07/29 00:02:44;;;;;;;9.70;6.30;;;;;;;22.23;64.46;99197.77;1669245;86;21110;-79
2022/07/29 00:05:13;;;;;;;10.78;6.25;;;;;;;22.24;64.94;99200.80;1670113;85;21086;-79
2022/07/29 00:07:41;;;;;;;8.90;5.65;;;;;;;22.23;65.26;99199.93;1662974;86;21060;-79
2022/07/29 00:10:08;;;;;;;14.13;5.87;;;;;;;22.19;65.08;99197.62;1665463;85;21562;-78
2022/07/29 00:12:35;;;;;;;10.90;5.72;;;;;;;22.15;65.48;99205.42;1670189;86;21014;-79
2022/07/29 00:15:03;;;;;;;11.18;6.00;;;;;;;22.13;65.41;99202.88;1666260;85;21077;-79
2022/07/29 00:17:29;;;;;;;9.93;5.70;;;;;;;22.04;65.58;99204.39;1667494;86;21058;-79
2022/07/29 00:19:56;;;;;;;10.25;5.90;;;;;;;22.04;65.57;99199.09;1668847;85;21050;-78
2022/07/29 00:22:23;;;;;;;12.95;6.12;;;;;;;22.03;65.18;99191.25;1659022;86;20991;-79
2022/07/29 00:24:49;;;;;;;9.15;5.85;;;;;;;22.01;65.29;99185.22;1689587;83;21034;-79
2022/07/29 00:27:18;;;;;;;12.53;6.22;;;;;;;21.96;64.93;99185.52;1671984;86;21062;-78
2022/07/29 00:29:45;;;;;;;12.10;5.62;;;;;;;21.97;64.91;99183.75;1669166;85;21574;-80
2022/07/29 00:32:11;;;;;;;11.88;5.72;;;;;;;21.93;64.68;99175.17;1666693;86;21018;-79
2022/07/29 00:37:24;;;;;;;8.60;6.05;;;;;;;21.92;65.02;99173.47;1656998;86;21157;-79
2022/07/29 00:39:50;;;;;;;10.05;6.08;;;;;;;21.92;64.17;99172.14;1668166;86;21078;-79
2022/07/29 00:42:17;;;;;;;16.32;6.78;;;;;;;21.85;64.74;99176.19;1659497;85;21053;-79
2022/07/29 00:44:44;;;;;;;11.40;6.70;;;;;;;21.80;66.17;99173.02;1671634;86;21073;-79
2022/07/29 00:47:12;;;;;;;11.75;6.30;;;;;;;21.76;65.93;99173.70;1664804;85;21130;-80
2022/07/29 00:49:41;;;;;;;8.73;6.05;;;;;;;21.73;66.42;99177.06;1671332;86;21562;-78
2022/07/29 00:52:10;;;;;;;10.95;6.12;;;;;;;21.68;66.20;99171.23;1663319;85;22197;-78
2022/07/29 00:54:39;;;;;;;9.88;5.62;;;;;;;21.65;68.15;99169.17;1668326;86;21549;-78
2022/07/29 00:57:07;;;;;;;11.18;6.40;;;;;;;21.65;67.34;99166.52;1665361;85;21531;-77
2022/07/29 00:59:35;;;;;;;11.45;5.87;;;;;;;21.67;66.49;99165.59;1671419;86;21039;-78
2022/07/29 01:02:03;;;;;;;10.05;5.40;;;;;;;21.63;68.44;99161.81;1664952;85;21080;-78
2022/07/29 01:04:31;;;;;;;12.18;5.97;;;;;;;21.60;67.68;99162.02;1668860;86;21038;-79
2022/07/29 01:06:58;;;;;;;9.73;5.97;;;;;;;21.60;67.68;99160.69;1667219;85;21065;-79
2022/07/29 01:09:26;;;;;;;11.40;6.05;;;;;;;21.60;67.20;99158.05;1669520;86;21086;-78
2022/07/29 01:11:53;;;;;;;11.08;5.67;;;;;;;21.53;67.29;99151.52;1667985;85;21029;-78
2022/07/29 01:14:22;;;;;;;10.98;6.30;;;;;;;21.53;67.44;99150.19;1665528;86;21066;-78
2022/07/29 01:17:09;;;;;;;10.20;5.92;;;;;;;21.50;67.01;99151.71;1668382;86;21034;-79
2022/07/29 01:19:47;;;;;;;19.05;7.00;;;;;;;21.47;67.74;99142.69;1667001;86;21074;-78
2022/07/29 01:22:40;;;;;;;11.15;6.55;;;;;;;21.44;67.92;99142.39;1668298;86;21530;-79
2022/07/29 01:25:27;;;;;;;12.33;7.35;;;;;;;21.42;68.51;99134.17;1669015;86;21598;-79
2022/07/29 01:28:05;;;;;;;10.72;6.22;;;;;;;21.39;68.60;99135.24;1667199;85;21023;-79
2022/07/29 01:30:33;;;;;;;9.60;6.47;;;;;;;21.34;68.69;99139.16;1631594;86;21066;-79
2022/07/29 01:33:05;;;;;;;11.12;6.65;;;;;;;21.31;69.76;99136.70;1668496;85;21018;-79
2022/07/29 01:35:36;;;;;;;13.97;7.10;;;;;;;21.25;68.54;99132.23;1670182;84;21541;-79
2022/07/29 01:38:11;;;;;;;9.53;6.03;;;;;;;21.25;67.79;99136.67;1671376;83;21140;-79
2022/07/29 01:40:47;;;;;;;14.00;6.55;;;;;;;21.20;67.86;99142.25;1651922;85;21113;-80
2022/07/29 01:43:18;;;;;;;11.05;6.90;;;;;;;21.18;67.70;99144.64;1665724;86;21018;-80
2022/07/29 01:46:04;;;;;;;11.25;6.40;;;;;;;21.15;67.91;99151.00;1664233;84;21050;-80
2022/07/29 01:48:46;;;;;;;9.50;5.90;;;;;;;21.13;68.23;99151.58;1670547;86;21502;-78
2022/07/29 01:51:20;;;;;;;10.05;6.12;;;;;;;21.10;68.01;99153.09;1659086;86;21094;-78
2022/07/29 01:54:08;;;;;;;12.68;6.03;;;;;;;21.03;67.70;99146.55;1669972;86;21018;-79
2022/07/29 01:56:38;;;;;;;9.33;5.72;;;;;;;20.97;69.03;99139.87;1665561;86;21550;-79
2022/07/29 01:59:07;;;;;;;9.25;5.78;;;;;;;20.95;67.99;99151.47;1652204;86;20990;-79
2022/07/29 02:01:36;;;;;;;13.22;6.12;;;;;;;20.92;68.46;99149.05;1663116;85;21035;-79
2022/07/29 02:04:06;;;;;;;9.28;5.97;;;;;;;20.94;68.60;99143.19;1670049;86;21050;-78
2022/07/29 02:06:35;;;;;;;11.78;6.47;;;;;;;20.90;69.33;99136.42;1644431;86;21041;-79
2022/07/29 02:09:03;;;;;;;11.97;6.05;;;;;;;20.90;69.47;99134.61;1657741;86;20987;-78
2022/07/29 02:11:33;;;;;;;16.42;6.60;;;;;;;20.94;69.56;99132.13;1662414;85;21046;-79
2022/07/29 02:14:01;;;;;;;12.58;5.78;;;;;;;20.96;69.29;99128.07;1670126;86;21106;-78
2022/07/29 02:16:32;;;;;;;11.30;6.45;;;;;;;20.96;70.11;99126.75;1660571;85;21101;-78
2022/07/29 02:19:01;;;;;;;8.95;6.00;;;;;;;20.96;70.25;99121.47;1669849;86;21038;-78
2022/07/29 02:21:32;;;;;;;10.40;6.35;;;;;;;21.00;71.56;99122.47;1662502;85;21147;-80
2022/07/29 02:24:01;;;;;;;11.20;6.87;;;;;;;21.01;70.72;99125.50;1648755;87;21633;-79
2022/07/29 02:26:31;;;;;;;9.33;5.92;;;;;;;21.04;72.67;99125.75;1657824;85;21066;-78
2022/07/29 02:28:59;;;;;;;11.43;6.67;;;;;;;21.03;71.45;99128.88;1665866;86;21082;-79
2022/07/29 02:31:30;;;;;;;11.03;6.30;;;;;;;21.05;71.33;99118.21;1666858;85;21022;-79
2022/07/29 02:33:58;;;;;;;10.78;6.75;;;;;;;21.03;71.50;99118.80;1664137;86;21062;-79
2022/07/29 02:36:26;;;;;;;12.47;6.78;;;;;;;21.05;72.07;99113.77;1668117;85;22131;-78
2022/07/29 02:38:57;;;;;;;12.58;7.28;;;;;;;21.06;71.49;99118.56;1649326;86;21521;-78
2022/07/29 02:41:50;;;;;;;13.90;7.55;;;;;;;21.06;71.91;99120.73;1651433;85;21517;-79
2022/07/29 02:44:21;;;;;;;11.65;7.50;;;;;;;21.07;71.92;99120.27;1662430;86;21066;-82
2022/07/29 02:47:40;;;;;;;13.00;7.25;;;;;;;21.05;70.67;99123.50;1667500;84;21082;-80
2022/07/29 02:50:21;;;;;;;12.25;7.55;;;;;;;20.95;71.11;99127.23;1626015;87;21096;-78
2022/07/29 02:53:03;;;;;;;13.75;7.47;;;;;;;20.88;72.17;99133.03;1625436;87;21101;-78
2022/07/29 02:55:59;;;;;;;12.20;6.55;;;;;;;20.80;71.61;99133.54;1670151;86;21055;-81
2022/07/29 02:58:36;;;;;;;14.23;6.97;;;;;;;20.73;72.25;99128.28;1621845;87;21109;-79
2022/07/29 03:01:16;;;;;;;10.63;6.40;;;;;;;20.69;73.87;99126.79;1650919;85;20978;-79
2022/07/29 03:03:45;;;;;;;10.60;6.55;;;;;;;20.68;72.45;99127.76;1657950;84;21046;-79
2022/07/29 03:06:15;;;;;;;13.10;6.92;;;;;;;20.66;72.73;99122.09;1667059;86;21110;-79
2022/07/29 03:08:42;;;;;;;14.55;6.20;;;;;;;20.67;72.50;99132.17;1662809;84;21090;-80
2022/07/29 03:11:10;;;;;;;12.25;6.70;;;;;;;20.70;72.60;99135.94;1671951;86;20987;-79
2022/07/29 03:13:37;;;;;;;13.43;6.60;;;;;;;20.71;73.10;99133.69;1667967;84;21038;-79
2022/07/29 03:16:05;;;;;;;11.03;6.50;;;;;;;20.72;72.42;99143.30;1671234;86;21038;-80
2022/07/29 03:18:33;;;;;;;12.60;6.50;;;;;;;20.69;73.30;99140.87;1672923;84;21030;-80
2022/07/29 03:21:00;;;;;;;12.18;6.78;;;;;;;20.69;73.46;99138.23;1660142;86;21086;-78
2022/07/29 03:23:27;;;;;;;14.00;7.33;;;;;;;20.70;73.42;99146.51;1664680;86;21582;-79
2022/07/29 03:25:55;;;;;;;14.38;7.08;;;;;;;20.72;73.02;99153.86;1667021;84;21046;-79
2022/07/29 03:28:22;;;;;;;12.78;6.65;;;;;;;20.74;72.56;99152.44;1667891;86;21030;-79
2022/07/29 03:30:50;;;;;;;12.73;6.67;;;;;;;20.73;72.45;99158.20;1662636;84;21546;-78
2022/07/29 03:33:17;;;;;;;12.33;7.58;;;;;;;20.75;72.71;99156.77;1668123;86;21377;-78
2022/07/29 03:35:43;;;;;;;14.43;7.60;;;;;;;20.79;73.20;99162.22;1662684;84;21078;-79
2022/07/29 03:38:10;;;;;;;13.80;7.53;;;;;;;20.83;72.82;99161.06;1627278;87;21093;-80
2022/07/29 03:41:03;;;;;;;14.47;7.22;;;;;;;20.84;72.28;99161.45;1628169;87;21053;-79
2022/07/29 03:43:36;;;;;;;19.37;7.95;;;;;;;20.84;72.62;99161.45;1630376;87;21046;-80
2022/07/29 03:46:08;;;;;;;12.47;7.37;;;;;;;20.84;72.54;99165.41;1647680;85;21025;-79
2022/07/29 03:48:39;;;;;;;17.52;6.92;;;;;;;20.83;72.68;99172.50;1631281;87;21085;-79
2022/07/29 03:51:06;;;;;;;14.58;7.03;;;;;;;20.84;72.39;99174.17;1606691;88;21046;-79
2022/07/29 03:53:35;;;;;;;15.95;7.25;;;;;;;20.86;72.18;99181.53;1606185;89;21069;-78
2022/07/29 03:56:03;;;;;;;13.28;6.45;;;;;;;20.90;72.00;99185.30;1620196;87;21065;-79
2022/07/29 03:58:32;;;;;;;20.48;6.97;;;;;;;20.91;72.34;99182.56;1621376;88;21100;-79
2022/07/29 04:00:59;;;;;;;17.45;6.97;;;;;;;20.91;72.26;99184.34;1621107;88;21025;-79
2022/07/29 04:03:26;;;;;;;11.83;7.30;;;;;;;20.96;72.27;99183.09;1617807;88;21529;-79
2022/07/29 04:06:05;;;;;;;13.00;7.67;;;;;;;20.94;71.51;99181.51;1618380;87;21070;-79
2022/07/29 04:08:34;;;;;;;12.90;7.72;;;;;;;20.90;71.81;99184.82;1601718;89;21049;-80
2022/07/29 04:11:02;;;;;;;15.03;7.80;;;;;;;20.86;71.93;99181.53;1622112;87;21111;-78
2022/07/29 04:13:29;;;;;;;18.80;8.33;;;;;;;20.85;72.20;99188.26;1617974;88;21033;-79
2022/07/29 04:15:56;;;;;;;24.45;8.28;;;;;;;20.83;72.84;99184.84;1622419;88;21079;-78
2022/07/29 04:18:24;;;;;;;15.78;7.92;;;;;;;20.84;73.19;99187.39;1612887;87;21023;-78
2022/07/29 04:20:51;;;;;;;18.50;7.92;;;;;;;20.84;72.75;99185.23;1622775;88;21527;-79
2022/07/29 04:23:17;;;;;;;13.83;7.42;;;;;;;20.80;72.78;99189.86;1615685;87;21021;-79
2022/07/29 04:25:44;;;;;;;18.85;8.80;;;;;;;20.82;72.56;99181.84;1622773;88;21570;-78
2022/07/29 04:28:11;;;;;;;22.07;9.28;;;;;;;20.83;73.30;99183.06;1615545;87;21041;-78
2022/07/29 04:30:38;;;;;;;15.75;8.38;;;;;;;20.90;73.07;99181.34;1622432;88;21558;-79
2022/07/29 04:33:07;;;;;;;16.80;7.80;;;;;;;20.97;72.84;99175.55;1615251;87;21009;-79
2022/07/29 04:35:38;;;;;;;11.73;7.20;;;;;;;21.02;72.97;99173.91;1622285;88;21055;-78
2022/07/29 04:38:06;;;;;;;16.42;7.05;;;;;;;21.05;72.54;99177.68;1617831;87;21085;-78
2022/07/29 04:40:34;;;;;;;13.03;6.92;;;;;;;21.12;72.03;99181.59;1610670;88;21118;-79
2022/07/29 04:43:01;;;;;;;13.18;8.03;;;;;;;21.18;71.37;99186.45;1621011;87;21076;-79
2022/07/29 04:45:28;;;;;;;15.65;8.70;;;;;;;21.27;71.73;99182.37;1617722;88;21093;-79
2022/07/29 04:47:55;;;;;;;17.32;8.88;;;;;;;21.35;71.37;99183.17;1622196;86;21114;-79
2022/07/29 04:50:22;;;;;;;17.82;8.18;;;;;;;21.42;71.39;99189.71;1620382;88;21081;-79
2022/07/29 04:52:49;;;;;;;15.68;7.58;;;;;;;21.49;70.83;99185.73;1624775;88;21546;-77
2022/07/29 04:55:16;;;;;;;15.50;7.53;;;;;;;21.56;70.84;99183.02;1621085;87;21097;-79
2022/07/29 04:57:42;;;;;;;20.55;8.20;;;;;;;21.63;70.60;99175.53;1617860;88;21098;-79
2022/07/29 05:00:10;;;;;;;19.32;10.48;;;;;;;21.70;70.59;99178.09;1620337;87;21022;-79
2022/07/29 05:02:37;;;;;;;13.05;7.35;;;;;;;21.78;70.30;99170.95;1619308;88;21357;-78
2022/07/29 05:05:04;;;;;;;18.30;7.83;;;;;;;21.85;70.24;99170.90;1621316;87;21039;-79
2022/07/29 05:07:31;;;;;;;13.85;7.55;;;;;;;21.91;69.88;99177.08;1623025;88;21044;-79
2022/07/29 05:09:57;;;;;;;13.03;6.65;;;;;;;21.96;69.83;99171.45;1620642;87;20985;-79
2022/07/29 05:12:25;;;;;;;11.38;6.47;;;;;;;22.03;69.76;99176.20;1623967;88;21573;-80
2022/07/29 05:14:52;;;;;;;11.12;5.80;;;;;;;22.04;69.83;99182.34;1621915;87;21054;-79
2022/07/29 05:17:18;;;;;;;13.62;6.10;;;;;;;22.14;69.74;99192.63;1615018;88;21149;-79
2022/07/29 05:19:45;;;;;;;10.28;6.25;;;;;;;22.21;69.65;99197.88;1622960;87;21078;-79
2022/07/29 05:22:12;;;;;;;21.97;7.65;;;;;;;22.30;69.35;99196.39;1619630;88;21060;-80
2022/07/29 05:24:38;;;;;;;11.55;6.92;;;;;;;22.40;69.47;99192.59;1623668;88;21030;-79
2022/07/29 05:27:05;;;;;;;11.25;6.87;;;;;;;22.50;69.21;99194.10;1616230;87;21575;-79
2022/07/29 05:29:32;;;;;;;12.98;7.28;;;;;;;22.59;68.72;99193.44;1623847;88;21058;-79
2022/07/29 05:31:58;;;;;;;10.18;7.10;;;;;;;22.61;68.31;99196.34;1617051;87;21078;-79
2022/07/29 05:34:25;;;;;;;12.78;6.65;;;;;;;22.69;68.24;99190.97;1623972;88;20995;-77
2022/07/29 05:36:51;;;;;;;12.50;6.62;;;;;;;22.82;67.74;99191.76;1609778;87;21688;-79
2022/07/29 05:39:18;;;;;;;11.25;6.90;;;;;;;22.91;67.24;99191.05;1622951;87;21011;-78
2022/07/29 05:41:45;;;;;;;10.15;6.50;;;;;;;22.90;67.26;99193.81;1620357;87;21120;-77
2022/07/29 05:44:13;;;;;;;11.90;6.85;;;;;;;22.97;67.01;99197.70;1620632;88;21018;-78
2022/07/29 05:46:40;;;;;;;11.60;6.42;;;;;;;23.02;66.84;99191.14;1619934;87;21097;-79
2022/07/29 05:49:07;;;;;;;10.88;6.08;;;;;;;23.13;66.73;99192.97;1622316;87;21049;-79
2022/07/29 05:51:34;;;;;;;14.05;6.58;;;;;;;23.29;66.41;99189.16;1623665;87;21090;-81
2022/07/29 05:54:02;;;;;;;11.05;5.70;;;;;;;23.34;66.07;99185.69;1623007;87;21010;-79
2022/07/29 05:56:29;;;;;;;10.30;6.37;;;;;;;23.44;65.97;99176.05;1620999;87;21114;-78
2022/07/29 05:58:56;;;;;;;10.98;5.83;;;;;;;23.52;65.68;99174.14;1622232;87;21101;-78
2022/07/29 06:01:22;;;;;;;10.08;6.33;;;;;;;23.58;65.76;99174.50;1622654;87;21554;-80
2022/07/29 06:03:49;;;;;;;9.38;5.53;;;;;;;23.70;65.67;99170.04;1619364;87;21052;-79
2022/07/29 06:06:15;;;;;;;9.68;6.10;;;;;;;23.81;65.40;99170.55;1622333;88;21042;-78
2022/07/29 06:08:42;;;;;;;10.05;6.25;;;;;;;23.91;65.20;99175.98;1622178;87;21078;-79
2022/07/29 06:11:08;;;;;;;9.65;6.80;;;;;;;23.96;64.86;99172.00;1622705;87;21075;-77
2022/07/29 06:13:35;;;;;;;15.15;6.58;;;;;;;23.98;64.86;99170.06;1619456;87;21075;-79
2022/07/29 06:16:02;;;;;;;11.50;6.42;;;;;;;23.91;64.70;99160.88;1622341;88;21086;-78
2022/07/29 06:18:29;;;;;;;13.03;6.40;;;;;;;23.98;64.65;99169.23;1621875;87;21054;-79
2022/07/29 06:20:55;;;;;;;8.85;5.87;;;;;;;23.99;64.59;99167.78;1623413;87;21104;-79
2022/07/29 06:23:22;;;;;;;11.08;6.58;;;;;;;24.02;64.67;99171.50;1621218;87;21069;-78
2022/07/29 06:25:49;;;;;;;12.58;6.37;;;;;;;24.06;64.50;99166.80;1625754;87;21103;-80
2022/07/29 06:28:15;;;;;;;11.03;7.00;;;;;;;24.07;64.56;99163.66;1625688;87;21007;-80
2022/07/29 06:30:42;;;;;;;11.80;6.40;;;;;;;24.13;64.44;99156.52;1621944;87;21054;-80
2022/07/29 06:33:08;;;;;;;9.73;6.17;;;;;;;24.19;64.04;99157.34;1622243;87;21073;-79
2022/07/29 06:35:36;;;;;;;9.43;6.05;;;;;;;24.12;64.53;99157.50;1626967;87;21064;-79
2022/07/29 06:38:06;;;;;;;10.70;6.22;;;;;;;24.14;64.34;99165.70;1623774;87;21082;-80
2022/07/29 06:43:41;;;;;;;12.75;6.17;;;;;;;24.25;64.76;99158.18;1511866;93;21291;-79
2022/07/29 06:46:11;;;;;;;10.48;6.92;;;;;;;24.34;64.79;99153.95;1607527;87;21015;-79
2022/07/29 06:48:39;;;;;;;9.33;6.53;;;;;;;24.39;64.39;99157.06;1640733;86;21585;-80
2022/07/29 06:51:07;;;;;;;11.75;7.30;;;;;;;24.45;64.48;99153.06;1646478;86;21102;-80
2022/07/29 06:53:35;;;;;;;10.75;6.35;;;;;;;24.54;64.38;99153.19;1647746;86;21641;-81
2022/07/29 06:56:04;;;;;;;11.00;6.80;;;;;;;24.65;63.93;99150.13;1646492;86;21026;-79
2022/07/29 06:58:31;;;;;;;10.30;6.80;;;;;;;24.75;63.88;99148.39;1649479;86;21610;-80
2022/07/29 07:01:01;;;;;;;11.65;7.25;;;;;;;24.90;63.29;99154.27;1646680;86;21045;-80
2022/07/29 07:03:28;;;;;;;10.90;7.00;;;;;;;24.93;63.18;99152.66;1648546;86;21058;-79
2022/07/29 07:05:55;;;;;;;16.07;10.80;;;;;;;25.00;63.21;99145.37;1646039;86;21042;-79
2022/07/29 07:08:23;;;;;;;17.73;7.00;;;;;;;25.14;62.67;99143.37;1646938;86;21336;-80
2022/07/29 07:10:51;;;;;;;16.17;10.28;;;;;;;25.18;62.49;99146.95;1648447;86;21067;-80
2022/07/29 07:13:18;;;;;;;11.88;6.78;;;;;;;25.20;62.39;99145.01;1649660;86;21057;-79
2022/07/29 07:15:47;;;;;;;10.78;6.67;;;;;;;25.29;62.47;99150.58;1650061;86;21061;-80
2022/07/29 07:18:15;;;;;;;12.13;6.60;;;;;;;25.37;61.82;99148.94;1652726;86;21085;-81
2022/07/29 07:20:42;;;;;;;11.57;6.92;;;;;;;25.39;61.81;99140.83;1657398;86;21586;-81
2022/07/29 07:23:09;;;;;;;9.90;6.95;;;;;;;25.47;61.75;99141.01;1647608;86;21007;-81
2022/07/29 07:25:36;;;;;;;11.60;6.37;;;;;;;25.55;61.21;99139.02;1646424;86;21279;-80
2022/07/29 07:28:03;;;;;;;10.25;7.35;;;;;;;25.57;61.28;99143.22;1655265;86;21062;-79
2022/07/29 07:30:30;;;;;;;12.18;7.37;;;;;;;25.62;61.26;99140.16;1646276;86;21019;-81
2022/07/29 07:32:57;;;;;;;12.40;7.60;;;;;;;25.72;61.21;99142.86;1646681;86;21083;-80
2022/07/29 07:35:24;;;;;;;10.82;6.85;;;;;;;25.78;60.48;99140.98;1647295;86;21034;-80
2022/07/29 07:37:50;;;;;;;10.75;6.92;;;;;;;25.76;60.31;99142.45;1633502;86;21016;-80
2022/07/29 07:40:17;;;;;;;12.50;7.30;;;;;;;25.74;60.43;99140.41;1663443;86;21105;-80
2022/07/29 07:42:44;;;;;;;10.93;6.83;;;;;;;25.80;60.40;99136.37;1611024;87;21340;-79
2022/07/29 07:45:12;;;;;;;11.03;7.37;;;;;;;25.88;60.15;99141.86;1611921;87;21075;-80
2022/07/29 07:47:40;;;;;;;13.15;7.28;;;;;;;25.95;60.17;99137.72;1639586;86;21090;-80
2022/07/29 07:50:09;;;;;;;11.12;6.67;;;;;;;26.02;59.61;99141.17;1649140;86;21050;-83
2022/07/29 07:52:51;;;;;;;12.95;7.15;;;;;;;26.04;59.55;99144.54;1652695;86;21069;-80
2022/07/29 07:55:19;;;;;;;12.20;7.33;;;;;;;26.08;59.59;99143.29;1653903;86;21506;-79
2022/07/29 07:57:46;;;;;;;15.03;6.55;;;;;;;26.19;59.58;99143.19;1649850;85;21765;-81
2022/07/29 08:00:15;;;;;;;13.03;6.65;;;;;;;26.34;59.48;99140.48;1659651;85;21121;-80
2022/07/29 08:02:42;;;;;;;14.47;7.75;;;;;;;26.52;58.68;99145.11;1655790;85;21088;-80
2022/07/29 08:05:11;;;;;;;10.72;7.03;;;;;;;26.58;58.64;99140.11;1650532;85;21098;-78
2022/07/29 08:07:38;;;;;;;9.95;6.90;;;;;;;26.73;58.26;99132.52;1649562;85;20986;-80
2022/07/29 08:10:05;;;;;;;12.23;6.90;;;;;;;26.88;57.96;99137.42;1645471;86;21085;-79
2022/07/29 08:12:32;;;;;;;13.38;7.00;;;;;;;27.03;57.19;99137.34;1650205;86;21010;-81
2022/07/29 08:14:59;;;;;;;9.83;6.50;;;;;;;27.11;56.97;99138.80;1645182;85;21058;-82
2022/07/29 08:17:26;;;;;;;12.85;8.53;;;;;;;27.23;56.20;99138.15;1656257;85;20995;-83
2022/07/29 08:19:53;;;;;;;8.93;6.55;;;;;;;27.28;55.87;99135.94;1654136;85;21011;-78
2022/07/29 08:22:19;;;;;;;10.75;6.80;;;;;;;27.38;55.60;99137.24;1666880;85;21189;-80
2022/07/29 08:24:52;;;;;;;13.15;6.28;;;;;;;27.50;55.54;99136.58;1665697;85;21079;-82
2022/07/29 08:27:15;;;;;;;9.45;6.60;;;;;;;27.69;54.40;99138.31;1657907;85;22059;-81
2022/07/29 08:29:41;;;;;;;8.38;6.37;;;;;;;27.77;53.74;99139.75;1661770;85;21069;-80
2022/07/29 08:32:08;;;;;;;9.63;6.22;;;;;;;27.89;53.76;99142.60;1666729;85;21619;-81
2022/07/29 08:34:34;;;;;;;9.15;6.53;;;;;;;28.00;53.02;99136.23;1658378;85;20998;-80
2022/07/29 08:37:02;;;;;;;8.55;5.78;;;;;;;27.95;52.81;99136.70;1657998;85;21030;-80
2022/07/29 08:39:28;;;;;;;10.70;6.28;;;;;;;27.95;52.51;99131.82;1655866;85;21073;-79
2022/07/29 08:41:55;;;;;;;9.18;6.10;;;;;;;28.06;52.34;99132.13;1653263;84;21904;-78
2022/07/29 08:44:22;;;;;;;9.48;5.92;;;;;;;28.13;51.45;99134.06;1659796;85;21032;-80
2022/07/29 08:46:51;;;;;;;10.43;6.05;;;;;;;28.22;51.81;99133.64;1652427;86;21075;-79
2022/07/29 08:49:18;;;;;;;8.53;5.87;;;;;;;28.31;51.55;99132.75;1624563;87;21640;-81
2022/07/29 08:51:45;;;;;;;7.80;5.85;;;;;;;28.32;51.21;99124.23;1628697;87;21104;-81
2022/07/29 08:54:17;;;;;;;7.55;6.10;;;;;;;28.43;50.57;99129.83;1672811;85;21038;-83
2022/07/29 08:56:52;;;;;;;11.68;6.35;;;;;;;28.48;50.95;99126.22;1673816;84;21049;-81
2022/07/29 08:59:22;;;;;;;10.55;6.35;;;;;;;28.66;50.86;99128.92;1671555;84;21034;-80
2022/07/29 09:01:53;;;;;;;9.75;5.95;;;;;;;28.64;50.41;99121.55;1688640;84;21120;-80
2022/07/29 09:04:21;;;;;;;8.00;5.67;;;;;;;28.60;49.40;99111.66;1669621;86;20995;-81
2022/07/29 09:06:51;;;;;;;8.45;6.05;;;;;;;28.64;49.88;99113.02;1668497;84;21032;-81
2022/07/29 09:09:18;;;;;;;7.17;5.50;;;;;;;28.80;49.87;99109.64;1671591;84;21102;-82
2022/07/29 09:11:45;;;;;;;8.63;5.80;;;;;;;28.89;49.23;99105.22;1670302;84;21077;-81
2022/07/29 09:14:13;;;;;;;8.13;5.95;;;;;;;29.05;48.81;99108.00;1669226;84;21027;-80
2022/07/29 09:16:51;;;;;;;9.70;5.78;;;;;;;29.03;45.99;99099.77;1669692;84;21601;-81
2022/07/29 09:19:31;;;;;;;9.18;5.97;;;;;;;29.06;48.05;99100.80;1633010;87;21056;-80
2022/07/29 09:22:00;;;;;;;8.38;5.60;;;;;;;29.24;47.85;99098.11;1676226;84;21203;-82
2022/07/29 09:24:40;;;;;;;9.60;5.75;;;;;;;29.34;47.31;99096.16;1633601;87;21034;-80
2022/07/29 09:27:20;;;;;;;8.75;5.30;;;;;;;29.38;46.41;99088.14;1632757;87;21074;-81
2022/07/29 09:29:59;;;;;;;8.43;5.80;;;;;;;29.37;45.08;99087.81;1628680;87;21064;-80
2022/07/29 09:32:26;;;;;;;12.88;5.67;;;;;;;29.42;45.72;99085.99;1678063;84;21026;-80
2022/07/29 09:35:20;;;;;;;7.50;5.53;;;;;;;29.49;45.75;99084.37;1625700;87;21569;-82
2022/07/29 09:37:48;;;;;;;8.90;5.60;;;;;;;29.55;45.44;99083.21;1665575;84;21042;-80
2022/07/29 09:40:19;;;;;;;10.32;6.05;;;;;;;29.74;45.81;99081.30;1667845;84;21199;-80
2022/07/29 09:42:47;;;;;;;9.85;5.83;;;;;;;29.84;45.37;99073.97;1675009;85;21034;-80
2022/07/29 09:45:27;;;;;;;7.35;5.33;;;;;;;29.89;45.37;99080.20;1665007;85;21029;-81
2022/07/29 09:47:55;;;;;;;9.25;5.30;;;;;;;29.92;45.32;99067.31;1675015;84;21132;-80
2022/07/29 09:50:25;;;;;;;7.75;5.42;;;;;;;30.03;45.23;99056.77;1668677;85;21035;-81
2022/07/29 09:52:55;;;;;;;16.80;8.60;;;;;;;30.23;45.17;99065.35;1672909;85;21073;-80
2022/07/29 09:55:22;;;;;;;9.58;6.65;;;;;;;30.43;45.35;99054.34;1677059;84;20990;-80
2022/07/29 09:57:48;;;;;;;8.03;5.70;;;;;;;30.68;45.02;99055.16;1674950;84;22413;-80
2022/07/29 10:00:22;;;;;;;11.05;5.97;;;;;;;30.99;44.38;99049.97;1679231;84;21146;-80
2022/07/29 10:02:49;;;;;;;9.95;5.33;;;;;;;31.25;43.72;99045.70;1679680;85;21014;-81
2022/07/29 10:05:20;;;;;;;9.20;5.30;;;;;;;31.53;42.46;99047.15;1674986;84;21023;-82
2022/07/29 10:07:56;;;;;;;10.93;5.70;;;;;;;31.68;42.70;99042.20;1663011;85;21546;-81
2022/07/29 10:10:33;;;;;;;7.33;5.35;;;;;;;31.86;42.57;99040.59;1675430;84;21042;-81
2022/07/29 10:13:04;;;;;;;8.15;5.15;;;;;;;32.00;41.92;99047.58;1675195;85;21104;-81
2022/07/29 10:15:40;;;;;;;8.83;5.55;;;;;;;32.08;41.33;99040.84;1672999;84;20986;-81
2022/07/29 10:18:05;;;;;;;7.55;4.80;;;;;;;32.16;40.07;99043.98;1673352;84;21151;-81
2022/07/29 10:20:34;;;;;;;7.62;5.08;;;;;;;32.27;40.50;99034.98;1647970;85;21836;-81
2022/07/29 10:23:01;;;;;;;13.08;4.80;;;;;;;32.43;40.14;99028.64;1669499;84;21152;-82
2022/07/29 10:25:28;;;;;;;8.35;5.10;;;;;;;32.56;38.95;99025.36;1686175;84;21063;-82
2022/07/29 10:27:55;;;;;;;8.68;4.75;;;;;;;32.68;39.18;99030.62;1670648;85;21142;-81
2022/07/29 10:30:25;;;;;;;9.58;4.83;;;;;;;32.73;38.47;99020.67;1670598;85;21031;-82
2022/07/29 10:33:29;;;;;;;7.95;5.15;;;;;;;32.79;38.40;99028.50;1658236;85;21041;-81
2022/07/29 10:36:25;;;;;;;7.22;5.10;;;;;;;32.81;37.40;99025.11;1672997;84;21063;-79
2022/07/29 10:39:09;;;;;;;11.83;5.40;;;;;;;32.78;37.60;99016.91;1668975;85;21076;-80
2022/07/29 10:42:14;;;;;;;6.15;4.67;;;;;;;32.75;37.44;99021.81;1651821;85;20983;-81
2022/07/29 10:44:43;;;;;;;6.45;4.80;;;;;;;32.73;36.81;99011.73;1670846;84;21064;-80
2022/07/29 10:47:26;;;;;;;6.90;4.80;;;;;;;32.74;36.47;99006.70;1669200;85;21411;-81
2022/07/29 10:50:03;;;;;;;7.58;4.72;;;;;;;32.75;36.96;99005.66;1666989;84;21551;-80
2022/07/29 10:52:56;;;;;;;8.50;4.80;;;;;;;32.80;37.04;99004.61;1643757;86;21069;-81
2022/07/29 10:55:44;;;;;;;10.55;7.47;;;;;;;32.93;36.53;99002.61;1668570;84;21040;-82
2022/07/29 10:58:19;;;;;;;9.20;5.12;;;;;;;32.98;37.07;98998.87;1664864;85;21081;-82
2022/07/29 11:00:51;;;;;;;7.25;4.80;;;;;;;33.14;37.03;99009.48;1667364;85;21522;-82
2022/07/29 11:03:46;;;;;;;8.63;5.20;;;;;;;33.29;36.24;99000.06;1671897;85;21043;-81
2022/07/29 11:06:14;;;;;;;6.83;4.97;;;;;;;33.22;36.21;99003.16;1674423;85;21107;-81
2022/07/29 11:08:41;;;;;;;6.45;4.90;;;;;;;33.23;36.06;98994.08;1623501;87;21648;-83
2022/07/29 11:11:30;;;;;;;6.85;5.12;;;;;;;33.25;36.05;98998.77;1625481;87;21146;-80
2022/07/29 11:13:57;;;;;;;7.08;5.17;;;;;;;33.32;35.82;98990.23;1630254;87;21037;-81
2022/07/29 11:16:24;;;;;;;6.00;4.72;;;;;;;33.35;35.85;98995.27;1633315;87;21058;-80
2022/07/29 11:19:17;;;;;;;7.47;5.17;;;;;;;33.47;35.05;98984.84;1665120;85;21090;-83
2022/07/29 11:21:49;;;;;;;7.92;5.03;;;;;;;33.52;35.62;98977.52;1669569;85;21059;-84
2022/07/29 11:24:28;;;;;;;5.87;4.20;;;;;;;33.57;35.38;98968.38;1661093;84;21035;-83
2022/07/29 11:27:19;;;;;;;8.70;5.20;;;;;;;33.63;35.02;98969.81;1644947;87;21125;-83
2022/07/29 11:30:00;;;;;;;8.90;5.90;;;;;;;33.83;34.91;98969.20;1674545;85;21081;-83
2022/07/29 11:32:36;;;;;;;12.23;5.50;;;;;;;33.99;35.02;98968.94;1655825;86;21079;-81
2022/07/29 11:35:22;;;;;;;12.73;5.15;;;;;;;34.14;34.96;98970.27;1640722;85;21458;-82
2022/07/29 11:38:29;;;;;;;7.28;5.28;;;;;;;34.25;34.25;98970.24;1658551;85;21001;-82
2022/07/29 11:41:25;;;;;;;6.60;4.90;;;;;;;34.33;34.54;98965.22;1660621;85;21057;-81
2022/07/29 11:43:57;;;;;;;8.25;5.40;;;;;;;34.41;34.50;98960.51;1664836;85;21036;-83
2022/07/29 11:46:51;;;;;;;11.28;5.65;;;;;;;34.46;34.65;98961.27;1673044;85;21038;-81
2022/07/29 11:49:26;;;;;;;7.30;5.12;;;;;;;34.36;34.63;98960.28;1628551;87;21115;-79